Overseas Long Beach — WAAT — position and weather

sailwx.info

Track history (hours):
 
Tides and Currents Weather Stations Pressure Air Temp Water Temp Dewpoint Dewpoint Depression Visibility Wind Speed Wind Dir Waves Ship Positions

Overseas Long Beach

Owner: ASC Leasing II, Inc., Philadelphia, PA. More information available from US FCC via Universal Licensing System and Coast Guard Vessel Documentation Center.

Last reported at 2016-Jun-25 12:33 UTC. Time now 2016-Jun-26 04:43 UTC.
Position N 29°22' W 094°48'.

Length 181 m; draft 11 m.

Type: Ship (hazmat cat D). MMSI: 367703000.

Date/timePositionNaut miles runAvg speedWind from/ knotsBaromVisibWave heightAir tempDewpointWater temp
2016-Jun-25 12:33N 29°22' W 094°48'1110.9
2016-Jun-25 11:33N 29°31' W 094°53'1110.7
2016-Jun-25 10:33N 29°41' W 094°59'7 7.2
2016-Jun-25 09:33N 29°46' W 095°05'5 5.2
2016-Jun-25 08:33N 29°45' W 095°11'  
2016-Jun-22 20:28N 29°43' W 095°14'2 1.9
2016-Jun-22 19:33N 29°44' W 095°12'6 5.6
2016-Jun-22 18:33N 29°45' W 095°06'5 5.2
2016-Jun-22 17:33N 29°42' W 095°01'9 8.6
2016-Jun-22 16:33N 29°35' W 094°56'1312.5
2016-Jun-22 15:33N 29°24' W 094°49'1312.4
2016-Jun-22 14:32N 29°18' W 094°36'  
2016-Jun-17 19:33N 25°34' W 079°59'1211.7
2016-Jun-17 18:33N 25°46' W 079°59'1212.2
2016-Jun-17 17:33N 25°58' W 079°58'1313.1
2016-Jun-17 16:33N 26°11' W 079°58'1313.5
2016-Jun-17 15:34N 26°25' W 079°58'1413.5
2016-Jun-17 14:30N 26°39' W 079°58'1314.1
2016-Jun-17 13:33N 26°52' W 079°57'1313.3
2016-Jun-17 12:33N 27°06' W 079°58'  
Track history (hours):
 
Tides and Currents Weather Stations Pressure Air Temp Water Temp Dewpoint Dewpoint Depression Visibility Wind Speed Wind Dir Waves Ship Positions

Overseas Long Beach

Owner: ASC Leasing II, Inc., Philadelphia, PA. More information available from US FCC via Universal Licensing System and Coast Guard Vessel Documentation Center.

Last reported at 2016-Jun-25 12:33 UTC. Time now 2016-Jun-26 04:43 UTC.
Position N 29°22' W 094°48'.

Length 181 m; draft 11 m.

Type: Ship (hazmat cat D). MMSI: 367703000.

Date/timePositionNaut miles runAvg speedWind from/ knotsBaromVisibWave heightAir tempDewpointWater temp
2016-Jun-25 12:33N 29°22' W 094°48'1110.9
2016-Jun-25 11:33N 29°31' W 094°53'1110.7
2016-Jun-25 10:33N 29°41' W 094°59'7 7.2
2016-Jun-25 09:33N 29°46' W 095°05'5 5.2
2016-Jun-25 08:33N 29°45' W 095°11'  
2016-Jun-22 20:28N 29°43' W 095°14'2 1.9
2016-Jun-22 19:33N 29°44' W 095°12'6 5.6
2016-Jun-22 18:33N 29°45' W 095°06'5 5.2
2016-Jun-22 17:33N 29°42' W 095°01'9 8.6
2016-Jun-22 16:33N 29°35' W 094°56'1312.5
2016-Jun-22 15:33N 29°24' W 094°49'1312.4
2016-Jun-22 14:32N 29°18' W 094°36'  
2016-Jun-17 19:33N 25°34' W 079°59'1211.7
2016-Jun-17 18:33N 25°46' W 079°59'1212.2
2016-Jun-17 17:33N 25°58' W 079°58'1313.1
2016-Jun-17 16:33N 26°11' W 079°58'1313.5
2016-Jun-17 15:34N 26°25' W 079°58'1413.5
2016-Jun-17 14:30N 26°39' W 079°58'1314.1
2016-Jun-17 13:33N 26°52' W 079°57'1313.3
2016-Jun-17 12:33N 27°06' W 079°58'  

Dump ship's entire track history